createdAt,value
2023-04-24T00:00:10.189Z,11.71
2023-04-24T00:02:47.875Z,12.32
2023-04-24T00:05:22.076Z,12.43
2023-04-24T00:07:55.565Z,12.54
2023-04-24T00:10:28.804Z,11.31
2023-04-24T00:13:03.061Z,11.47
2023-04-24T00:15:37.206Z,10.97
2023-04-24T00:18:11.751Z,10.77
2023-04-24T00:20:45.122Z,11.27
2023-04-24T00:23:18.484Z,11.80
2023-04-24T00:25:51.397Z,11.00
2023-04-24T00:28:24.461Z,11.05
2023-04-24T00:30:57.857Z,11.73
2023-04-24T00:33:32.426Z,12.07
2023-04-24T00:36:05.739Z,11.81
2023-04-24T00:38:38.657Z,11.79
2023-04-24T00:41:11.654Z,11.99
2023-04-24T00:43:44.628Z,11.83
2023-04-24T00:46:18.403Z,11.04
2023-04-24T00:48:52.938Z,11.11
2023-04-24T00:51:26.004Z,10.84
2023-04-24T00:53:59.247Z,11.11
2023-04-24T00:56:32.408Z,11.81
2023-04-24T00:59:06.057Z,11.99
2023-04-24T01:01:43.072Z,12.19
2023-04-24T01:04:19.318Z,11.87
2023-04-24T01:06:53.582Z,12.16
2023-04-24T01:09:27.208Z,11.71
2023-04-24T01:12:03.108Z,11.45
2023-04-24T01:14:36.879Z,11.06
2023-04-24T01:17:10.638Z,11.10
2023-04-24T01:19:46.189Z,10.83
2023-04-24T01:22:20.540Z,10.75
2023-04-24T01:24:54.053Z,10.56
2023-04-24T01:27:27.606Z,10.60
2023-04-24T01:30:01.443Z,10.88
2023-04-24T01:32:34.486Z,10.36
2023-04-24T01:35:08.521Z,9.95
2023-04-24T01:37:42.972Z,10.37
2023-04-24T01:40:16.327Z,10.36
2023-04-24T01:42:49.907Z,10.41
2023-04-24T01:45:23.030Z,11.26
2023-04-24T01:47:56.062Z,10.32
2023-04-24T01:50:29.180Z,10.23
2023-04-24T01:53:03.488Z,10.10
2023-04-24T01:55:36.556Z,9.72
2023-04-24T01:58:09.820Z,9.68
2023-04-24T02:00:43.051Z,10.17
2023-04-24T02:03:16.434Z,9.76
2023-04-24T02:05:49.560Z,10.00
2023-04-24T02:08:24.056Z,9.82
2023-04-24T02:10:57.078Z,9.92
2023-04-24T02:13:31.087Z,10.11
2023-04-24T02:16:04.490Z,9.88
2023-04-24T02:18:38.022Z,9.68
2023-04-24T02:21:11.009Z,9.93
2023-04-24T02:23:45.364Z,9.75
2023-04-24T02:26:19.380Z,9.76
2023-04-24T02:28:52.687Z,10.34
2023-04-24T02:31:25.879Z,10.77
2023-04-24T02:33:58.863Z,10.13
2023-04-24T02:36:32.611Z,9.97
2023-04-24T02:39:07.424Z,9.66
2023-04-24T02:41:40.540Z,9.58
2023-04-24T02:44:13.774Z,9.76
2023-04-24T02:46:46.803Z,9.87
2023-04-24T02:49:19.809Z,9.28
2023-04-24T02:51:52.849Z,9.10
2023-04-24T02:54:27.125Z,9.70
2023-04-24T02:57:00.221Z,9.91
2023-04-24T02:59:33.490Z,9.32
2023-04-24T03:02:06.831Z,9.64
2023-04-24T03:04:41.173Z,9.81
2023-04-24T03:07:14.856Z,9.56
2023-04-24T03:09:49.385Z,9.47
2023-04-24T03:12:24.870Z,9.87
2023-04-24T03:14:58.514Z,9.74
2023-04-24T03:17:32.385Z,9.91
2023-04-24T03:20:07.426Z,9.40
2023-04-24T03:22:40.504Z,9.69
2023-04-24T03:25:15.055Z,9.67
2023-04-24T03:27:48.851Z,9.86
2023-04-24T03:30:21.747Z,9.36
2023-04-24T03:32:54.836Z,9.13
2023-04-24T03:35:28.014Z,8.93
2023-04-24T03:38:01.045Z,8.65
2023-04-24T03:40:35.674Z,9.37
2023-04-24T03:43:09.208Z,9.01
2023-04-24T03:45:42.419Z,8.89
2023-04-24T03:48:15.580Z,8.90
2023-04-24T03:50:48.703Z,8.24
2023-04-24T03:53:21.888Z,8.11
2023-04-24T03:55:56.294Z,8.33
2023-04-24T03:58:29.668Z,8.73
2023-04-24T04:01:02.695Z,8.75
2023-04-24T04:03:36.172Z,8.48
2023-04-24T04:06:09.351Z,8.54
2023-04-24T04:08:42.523Z,8.68
2023-04-24T04:11:16.813Z,8.50
2023-04-24T04:13:51.065Z,8.55
2023-04-24T04:16:24.603Z,8.72
2023-04-24T04:18:57.636Z,8.77
2023-04-24T04:21:31.893Z,8.70
2023-04-24T04:24:06.525Z,8.74
2023-04-24T04:26:41.756Z,8.51
2023-04-24T04:29:15.882Z,8.52
2023-04-24T04:31:50.523Z,8.72
2023-04-24T04:34:23.668Z,8.75
2023-04-24T04:36:56.632Z,8.53
2023-04-24T04:39:30.960Z,8.74
2023-04-24T04:42:05.732Z,9.36
2023-04-24T04:44:39.587Z,9.08
2023-04-24T04:47:12.502Z,9.71
2023-04-24T04:49:46.199Z,9.56
2023-04-24T04:52:19.226Z,9.74
2023-04-24T04:54:52.406Z,10.19
2023-04-24T04:57:27.208Z,10.41
2023-04-24T05:00:01.231Z,10.49
2023-04-24T05:02:34.376Z,10.15
2023-04-24T05:05:08.399Z,10.26
2023-04-24T05:07:41.675Z,9.84
2023-04-24T05:10:14.998Z,9.90
2023-04-24T05:12:50.584Z,9.81
2023-04-24T05:15:24.069Z,10.40
2023-04-24T05:17:58.052Z,10.41
2023-04-24T05:20:31.415Z,10.54
2023-04-24T05:23:04.742Z,10.10
2023-04-24T05:25:39.730Z,10.23
2023-04-24T05:28:14.320Z,10.57
2023-04-24T05:30:47.288Z,11.05
2023-04-24T05:33:20.706Z,11.56
2023-04-24T05:35:53.883Z,11.58
2023-04-24T05:38:27.052Z,10.85
2023-04-24T05:41:00.863Z,11.15
2023-04-24T05:43:35.727Z,11.90
2023-04-24T05:46:08.863Z,11.86
2023-04-24T05:48:42.019Z,12.05
2023-04-24T05:51:15.306Z,12.34
2023-04-24T05:53:48.722Z,11.68
2023-04-24T05:56:22.585Z,11.78
2023-04-24T05:58:57.038Z,11.79
2023-04-24T06:01:29.931Z,11.35
2023-04-24T06:04:03.612Z,12.12
2023-04-24T06:06:37.305Z,11.77
2023-04-24T06:09:10.613Z,12.19
2023-04-24T06:11:44.199Z,12.58
2023-04-24T06:14:18.735Z,12.66
2023-04-24T06:16:52.120Z,12.76
2023-04-24T06:19:25.139Z,12.91
2023-04-24T06:21:58.057Z,12.56
2023-04-24T06:24:31.523Z,12.77
2023-04-24T06:27:04.937Z,12.78
2023-04-24T06:29:39.366Z,12.23
2023-04-24T06:32:12.509Z,12.93
2023-04-24T06:34:45.631Z,12.79
2023-04-24T06:37:18.717Z,12.21
2023-04-24T06:39:51.820Z,13.09
2023-04-24T06:42:25.830Z,12.94
2023-04-24T06:45:00.537Z,12.66
2023-04-24T06:47:33.540Z,12.57
2023-04-24T06:50:07.051Z,12.97
2023-04-24T06:52:40.103Z,13.23
2023-04-24T06:55:13.294Z,13.37
2023-04-24T06:57:46.723Z,13.30
2023-04-24T07:00:21.259Z,13.38
2023-04-24T07:02:54.465Z,12.97
2023-04-24T07:05:29.291Z,13.25
2023-04-24T07:08:02.585Z,13.24
2023-04-24T07:10:36.439Z,13.60
2023-04-24T07:13:10.571Z,13.72
2023-04-24T07:15:45.202Z,13.88
2023-04-24T07:18:19.092Z,13.95
2023-04-24T07:20:52.162Z,14.01
2023-04-24T07:23:25.494Z,13.54
2023-04-24T07:25:59.226Z,13.68
2023-04-24T07:28:32.574Z,13.90
2023-04-24T07:31:07.053Z,13.87
2023-04-24T07:33:40.210Z,14.08
2023-04-24T07:36:18.028Z,14.02
2023-04-24T07:38:51.476Z,13.93
2023-04-24T07:41:25.391Z,13.79
2023-04-24T07:43:59.441Z,13.52
2023-04-24T07:46:34.285Z,13.79
2023-04-24T07:49:13.446Z,13.82
2023-04-24T07:51:47.288Z,14.05
2023-04-24T07:54:20.414Z,14.19
2023-04-24T07:56:53.394Z,14.37
2023-04-24T07:59:26.469Z,14.49
2023-04-24T08:02:02.306Z,14.59
2023-04-24T08:04:35.921Z,14.65
2023-04-24T08:07:09.217Z,14.76
2023-04-24T08:09:42.693Z,14.91
2023-04-24T08:12:17.159Z,15.13
2023-04-24T08:14:50.800Z,14.98
2023-04-24T08:17:25.221Z,15.03
2023-04-24T08:20:02.671Z,14.95
2023-04-24T08:22:36.022Z,15.03
2023-04-24T08:25:09.432Z,15.05
2023-04-24T08:27:43.104Z,14.92
2023-04-24T08:30:16.472Z,14.95
2023-04-24T08:32:51.403Z,15.07
2023-04-24T08:35:25.070Z,15.05
2023-04-24T08:37:58.304Z,14.95
2023-04-24T08:40:31.906Z,15.04
2023-04-24T08:43:05.653Z,15.27
2023-04-24T08:45:39.524Z,15.48
2023-04-24T08:48:27.367Z,15.74
2023-04-24T08:51:04.864Z,15.97
2023-04-24T08:53:38.518Z,15.96
2023-04-24T08:56:13.547Z,16.03
2023-04-24T08:58:46.847Z,16.32
2023-04-24T09:01:20.692Z,15.99
2023-04-24T09:03:55.630Z,16.16
2023-04-24T09:06:29.089Z,15.93
2023-04-24T09:09:04.475Z,15.93
2023-04-24T09:11:38.877Z,16.16
2023-04-24T09:14:13.300Z,16.29
2023-04-24T09:16:47.363Z,16.30
2023-04-24T09:19:23.507Z,16.36
2023-04-24T09:21:56.886Z,16.19
2023-04-24T09:24:30.202Z,16.42
2023-04-24T09:27:03.900Z,16.60
2023-04-24T09:29:37.297Z,16.71
2023-04-24T09:32:20.889Z,16.57
2023-04-24T09:35:09.170Z,16.59
2023-04-24T09:37:43.528Z,16.84
2023-04-24T09:40:18.100Z,16.92
2023-04-24T09:42:54.431Z,16.75
2023-04-24T09:45:29.687Z,16.83
2023-04-24T09:48:02.947Z,16.97
2023-04-24T09:50:37.630Z,17.01
2023-04-24T09:53:11.872Z,16.92
2023-04-24T09:55:49.567Z,17.15
2023-04-24T09:58:26.992Z,17.07
2023-04-24T10:01:00.086Z,17.25
2023-04-24T10:03:33.433Z,17.36
2023-04-24T10:06:10.261Z,17.39
2023-04-24T10:08:44.084Z,17.37
2023-04-24T10:11:27.682Z,17.46
2023-04-24T10:14:01.795Z,17.63
2023-04-24T10:16:36.418Z,17.66
2023-04-24T10:19:09.777Z,17.82
2023-04-24T10:21:47.617Z,17.94
2023-04-24T10:24:22.089Z,18.06
2023-04-24T10:26:55.220Z,17.99
2023-04-24T10:29:28.636Z,17.95
2023-04-24T10:32:02.409Z,18.29
2023-04-24T10:34:35.699Z,18.09
2023-04-24T10:37:10.280Z,17.93
2023-04-24T10:39:43.420Z,17.86
2023-04-24T10:42:17.396Z,18.10
2023-04-24T10:44:51.181Z,18.22
2023-04-24T10:47:24.435Z,18.30
2023-04-24T10:50:01.051Z,18.32
2023-04-24T10:52:47.461Z,18.35
2023-04-24T10:55:35.716Z,18.47
2023-04-24T10:58:08.881Z,18.79
2023-04-24T11:00:42.633Z,18.80
2023-04-24T11:03:26.743Z,18.72
2023-04-24T11:06:01.471Z,18.58
2023-04-24T11:08:40.290Z,18.81
2023-04-24T11:11:14.579Z,19.07
2023-04-24T11:14:05.249Z,18.93
2023-04-24T11:16:45.675Z,19.00
2023-04-24T11:19:26.098Z,18.76
2023-04-24T11:22:02.635Z,18.73
2023-04-24T11:24:40.907Z,18.77
2023-04-24T11:27:16.154Z,18.80
2023-04-24T11:29:51.177Z,19.00
2023-04-24T11:32:28.815Z,19.06
2023-04-24T11:35:03.673Z,19.17
2023-04-24T11:37:38.269Z,19.29
2023-04-24T11:40:14.118Z,19.27
2023-04-24T11:42:48.078Z,19.10
2023-04-24T11:45:23.434Z,19.30
2023-04-24T11:47:56.983Z,18.95
2023-04-24T11:50:30.812Z,19.02
2023-04-24T11:53:04.363Z,18.99
2023-04-24T11:55:39.050Z,18.90
2023-04-24T11:58:12.248Z,18.73
2023-04-24T12:00:46.779Z,18.64
2023-04-24T12:03:20.229Z,18.67
2023-04-24T12:05:53.985Z,18.61
2023-04-24T12:08:30.907Z,18.75
2023-04-24T12:11:06.315Z,18.68
2023-04-24T12:13:40.019Z,18.69
2023-04-24T12:16:13.759Z,18.80
2023-04-24T12:18:47.572Z,18.71
2023-04-24T12:21:23.160Z,18.66
2023-04-24T12:23:56.836Z,18.76
2023-04-24T12:26:31.223Z,18.91
2023-04-24T12:29:05.569Z,19.00
2023-04-24T12:31:38.904Z,18.99
2023-04-24T12:34:19.577Z,18.89
2023-04-24T12:36:52.983Z,18.91
2023-04-24T12:39:27.808Z,19.08
2023-04-24T12:42:02.768Z,19.12
2023-04-24T12:44:38.165Z,19.08
2023-04-24T12:47:12.037Z,18.88
2023-04-24T12:49:46.122Z,18.92
2023-04-24T12:52:19.170Z,18.93
2023-04-24T12:54:52.659Z,18.77
2023-04-24T12:57:27.634Z,18.75
2023-04-24T13:00:01.036Z,18.76
2023-04-24T13:02:34.484Z,18.71
2023-04-24T13:05:08.496Z,18.68
2023-04-24T13:07:41.903Z,18.81
2023-04-24T13:10:15.422Z,18.95
2023-04-24T13:12:51.200Z,18.92
2023-04-24T13:15:24.625Z,19.17
2023-04-24T13:17:58.173Z,19.37
2023-04-24T13:20:31.433Z,19.40
2023-04-24T13:23:04.506Z,19.43
2023-04-24T13:25:38.491Z,19.41
2023-04-24T13:28:13.462Z,19.33
2023-04-24T13:30:46.711Z,19.37
2023-04-24T13:33:19.926Z,19.25
2023-04-24T13:35:53.267Z,19.26
2023-04-24T13:38:26.242Z,19.16
2023-04-24T13:40:59.711Z,19.18
2023-04-24T13:43:34.546Z,19.14
2023-04-24T13:46:07.687Z,19.14
2023-04-24T13:48:40.947Z,19.01
2023-04-24T13:51:14.061Z,18.86
2023-04-24T13:53:47.470Z,18.73
2023-04-24T13:56:21.321Z,18.84
2023-04-24T13:58:56.206Z,18.90
2023-04-24T14:01:29.801Z,18.86
2023-04-24T14:04:03.415Z,18.95
2023-04-24T14:06:36.931Z,18.65
2023-04-24T14:09:09.880Z,18.78
2023-04-24T14:11:45.617Z,18.69
2023-04-24T14:14:20.632Z,18.73
2023-04-24T14:16:55.512Z,18.81
2023-04-24T14:19:29.352Z,18.77
2023-04-24T14:22:02.977Z,18.65
2023-04-24T14:24:36.180Z,18.77
2023-04-24T14:27:09.699Z,18.86
2023-04-24T14:29:45.344Z,18.86
2023-04-24T14:32:18.548Z,18.82
2023-04-24T14:34:51.714Z,18.62
2023-04-24T14:37:25.532Z,18.83
2023-04-24T14:40:11.731Z,18.85
2023-04-24T14:42:52.717Z,18.92
2023-04-24T14:45:26.985Z,18.99
2023-04-24T14:48:00.938Z,19.00
2023-04-24T14:50:34.069Z,19.01
2023-04-24T14:53:09.276Z,18.88
2023-04-24T14:55:42.292Z,18.78
2023-04-24T14:58:15.484Z,18.65
2023-04-24T15:00:52.872Z,18.51
2023-04-24T15:03:28.011Z,18.43
2023-04-24T15:06:02.045Z,18.30
2023-04-24T15:08:35.390Z,18.53
2023-04-24T15:11:08.592Z,18.34
2023-04-24T15:13:42.620Z,18.21
2023-04-24T15:16:18.177Z,18.34
2023-04-24T15:18:51.425Z,18.23
2023-04-24T15:21:27.064Z,17.98
2023-04-24T15:24:00.107Z,18.31
2023-04-24T15:26:33.092Z,18.15
2023-04-24T15:29:06.354Z,18.14
2023-04-24T15:31:41.585Z,17.94
2023-04-24T15:34:14.780Z,18.03
2023-04-24T15:36:47.951Z,17.93
2023-04-24T15:39:24.472Z,18.18
2023-04-24T15:41:57.732Z,18.00
2023-04-24T15:44:31.353Z,17.61
2023-04-24T15:47:05.876Z,17.60
2023-04-24T15:49:38.874Z,17.70
2023-04-24T15:52:11.878Z,17.52
2023-04-24T15:54:44.887Z,17.35
2023-04-24T15:57:18.103Z,17.54
2023-04-24T15:59:51.580Z,17.71
2023-04-24T16:02:26.106Z,17.61
2023-04-24T16:04:59.530Z,17.50
2023-04-24T16:07:32.516Z,17.54
2023-04-24T16:10:05.767Z,17.57
2023-04-24T16:12:38.870Z,17.64
2023-04-24T16:15:12.616Z,17.65
2023-04-24T16:17:49.691Z,17.66
2023-04-24T16:20:22.840Z,17.36
2023-04-24T16:22:55.783Z,17.14
2023-04-24T16:25:28.889Z,17.37
2023-04-24T16:28:01.905Z,17.21
2023-04-24T16:30:36.630Z,17.52
2023-04-24T16:33:11.610Z,17.36
2023-04-24T16:35:45.440Z,17.22
2023-04-24T16:38:18.385Z,17.33
2023-04-24T16:40:51.768Z,17.10
2023-04-24T16:43:24.977Z,17.09
2023-04-24T16:45:58.148Z,17.11
2023-04-24T16:48:33.546Z,17.27
2023-04-24T16:51:06.615Z,17.07
2023-04-24T16:53:39.665Z,17.24
2023-04-24T16:56:14.575Z,16.94
2023-04-24T16:58:47.866Z,16.94
2023-04-24T17:01:21.272Z,17.31
2023-04-24T17:03:56.164Z,16.86
2023-04-24T17:06:29.408Z,16.68
2023-04-24T17:09:02.301Z,16.86
2023-04-24T17:11:35.414Z,17.00
2023-04-24T17:14:11.184Z,16.73
2023-04-24T17:16:46.157Z,16.83
2023-04-24T17:19:20.493Z,16.60
2023-04-24T17:21:53.345Z,16.59
2023-04-24T17:24:26.320Z,16.85
2023-04-24T17:27:08.103Z,16.83
2023-04-24T17:29:44.899Z,16.88
2023-04-24T17:32:18.136Z,17.22
2023-04-24T17:34:52.725Z,17.03
2023-04-24T17:37:26.120Z,16.98
2023-04-24T17:39:59.141Z,16.86
2023-04-24T17:42:32.507Z,16.55
2023-04-24T17:45:07.527Z,16.75
2023-04-24T17:47:41.148Z,16.83
2023-04-24T17:50:15.988Z,16.69
2023-04-24T17:52:49.269Z,16.38
2023-04-24T17:55:22.497Z,16.15
2023-04-24T17:57:57.034Z,16.32
2023-04-24T18:00:30.385Z,16.52
2023-04-24T18:03:04.220Z,16.31
2023-04-24T18:05:39.885Z,16.12
2023-04-24T18:08:13.215Z,16.19
2023-04-24T18:10:49.548Z,16.51
2023-04-24T18:13:23.070Z,16.00
2023-04-24T18:15:56.428Z,15.86
2023-04-24T18:18:32.223Z,15.88
2023-04-24T18:21:07.202Z,15.63
2023-04-24T18:23:42.010Z,15.70
2023-04-24T18:26:17.139Z,15.50
2023-04-24T18:28:50.514Z,15.66
2023-04-24T18:31:24.101Z,15.63
2023-04-24T18:33:57.419Z,15.39
2023-04-24T18:36:36.173Z,15.37
2023-04-24T18:39:09.190Z,15.31
2023-04-24T18:41:44.879Z,15.78
2023-04-24T18:44:18.903Z,15.47
2023-04-24T18:46:52.153Z,15.52
2023-04-24T18:49:25.262Z,15.76
2023-04-24T18:52:01.672Z,15.66
2023-04-24T18:54:39.455Z,15.70
2023-04-24T18:57:12.863Z,15.45
2023-04-24T18:59:49.304Z,15.58
2023-04-24T19:02:22.633Z,15.73
2023-04-24T19:04:55.867Z,15.30
2023-04-24T19:07:30.342Z,15.41
2023-04-24T19:10:03.406Z,15.37
2023-04-24T19:12:38.630Z,15.80
2023-04-24T19:15:13.052Z,16.09
2023-04-24T19:17:50.861Z,15.80
2023-04-24T19:20:24.132Z,15.58
2023-04-24T19:22:59.135Z,15.30
2023-04-24T19:25:32.508Z,15.14
2023-04-24T19:28:05.838Z,15.42
2023-04-24T19:30:38.931Z,15.55
2023-04-24T19:33:12.023Z,15.63
2023-04-24T19:35:45.346Z,15.31
2023-04-24T19:38:20.285Z,15.49
2023-04-24T19:40:53.510Z,15.39
2023-04-24T19:43:26.747Z,15.88
2023-04-24T19:46:00.978Z,15.73
2023-04-24T19:48:34.162Z,15.46
2023-04-24T19:51:07.372Z,15.28
2023-04-24T19:53:43.591Z,15.35
2023-04-24T19:56:16.955Z,15.44
2023-04-24T19:58:50.096Z,15.57
2023-04-24T20:01:23.290Z,15.38
2023-04-24T20:03:56.716Z,15.39
2023-04-24T20:06:29.901Z,15.21
2023-04-24T20:09:05.875Z,15.41
2023-04-24T20:11:40.916Z,15.61
2023-04-24T20:14:14.159Z,15.59
2023-04-24T20:16:47.255Z,15.49
2023-04-24T20:19:20.202Z,15.53
2023-04-24T20:21:53.366Z,15.54
2023-04-24T20:24:28.024Z,15.64
2023-04-24T20:27:01.356Z,15.78
2023-04-24T20:29:34.896Z,15.80
2023-04-24T20:32:07.875Z,15.72
2023-04-24T20:34:40.863Z,15.58
2023-04-24T20:37:13.905Z,15.52
2023-04-24T20:39:49.732Z,15.62
2023-04-24T20:42:23.209Z,15.54
2023-04-24T20:44:56.207Z,15.42
2023-04-24T20:47:29.607Z,15.55
2023-04-24T20:50:04.234Z,15.30
2023-04-24T20:52:37.347Z,15.39
2023-04-24T20:55:12.349Z,15.10
2023-04-24T20:57:45.245Z,15.10
2023-04-24T21:00:18.167Z,15.10
2023-04-24T21:02:51.146Z,15.20
2023-04-24T21:05:24.231Z,15.31
2023-04-24T21:07:57.767Z,15.11
2023-04-24T21:10:32.234Z,15.04
2023-04-24T21:13:05.402Z,15.16
2023-04-24T21:15:38.326Z,14.99
2023-04-24T21:18:11.210Z,15.01
2023-04-24T21:20:44.191Z,15.10
2023-04-24T21:23:17.391Z,14.94
2023-04-24T21:25:52.719Z,14.87
2023-04-24T21:28:26.051Z,14.94
2023-04-24T21:30:59.108Z,15.00
2023-04-24T21:33:31.966Z,14.76
2023-04-24T21:36:05.265Z,14.90
2023-04-24T21:38:39.891Z,14.72
2023-04-24T21:41:14.525Z,14.92
2023-04-24T21:43:48.397Z,14.85
2023-04-24T21:46:23.542Z,14.79
2023-04-24T21:48:56.619Z,14.60
2023-04-24T21:51:29.535Z,14.31
2023-04-24T21:54:02.641Z,14.37
2023-04-24T21:56:37.013Z,14.23
2023-04-24T21:59:10.055Z,14.15
2023-04-24T22:01:42.946Z,14.39
2023-04-24T22:04:16.115Z,14.47
2023-04-24T22:06:49.398Z,14.42
2023-04-24T22:09:22.724Z,14.47
2023-04-24T22:11:56.885Z,14.21
2023-04-24T22:14:29.958Z,14.48
2023-04-24T22:17:03.110Z,14.18
2023-04-24T22:19:35.919Z,14.24
2023-04-24T22:22:08.922Z,14.26
2023-04-24T22:24:41.990Z,14.41
2023-04-24T22:27:16.510Z,14.24
2023-04-24T22:29:49.267Z,14.35
2023-04-24T22:32:22.199Z,14.20
2023-04-24T22:34:55.110Z,14.26
2023-04-24T22:37:27.992Z,14.44
2023-04-24T22:40:01.617Z,14.42
2023-04-24T22:42:36.635Z,14.35
2023-04-24T22:45:11.659Z,14.17
2023-04-24T22:47:44.595Z,14.17
2023-04-24T22:50:18.260Z,14.28
2023-04-24T22:52:50.967Z,14.27
2023-04-24T22:55:24.075Z,14.12
2023-04-24T22:57:58.473Z,14.20
2023-04-24T23:00:31.376Z,14.22
2023-04-24T23:03:04.437Z,14.08
2023-04-24T23:05:37.320Z,13.89
2023-04-24T23:08:10.165Z,13.99
2023-04-24T23:10:43.290Z,13.73
2023-04-24T23:13:17.645Z,13.96
2023-04-24T23:15:51.145Z,13.56
2023-04-24T23:18:25.393Z,13.59
2023-04-24T23:20:58.820Z,13.66
2023-04-24T23:23:31.953Z,13.45
2023-04-24T23:26:05.085Z,13.51
2023-04-24T23:28:40.972Z,13.55
2023-04-24T23:31:14.054Z,13.69
2023-04-24T23:33:47.400Z,13.50
2023-04-24T23:36:20.456Z,13.74
2023-04-24T23:38:53.230Z,13.65
2023-04-24T23:41:26.868Z,13.59
2023-04-24T23:44:01.707Z,13.55
2023-04-24T23:46:34.905Z,13.64
2023-04-24T23:49:08.956Z,13.72
2023-04-24T23:51:42.307Z,13.69
2023-04-24T23:54:15.282Z,13.62
2023-04-24T23:56:48.824Z,13.60
2023-04-24T23:59:23.184Z,13.56
